Butler, Oklahoma
Current Conditions -  °F | °C
As of 8:15 AM on Friday 19 Dec 2014 (Local Time) from KCLK Reporting Station
Haze Haze  
Wind Chill:   Ceiling: 700
Heat Index:   Visibility: 5mi
Dew Point:   Wind: 5mph
Humidity: 87%   Direction: 80°E
Pressure: 30.24"   Gusts: NA
Location:  35.64°N, 99.19°W
Report Text: KCLK 191415Z AUTO 08004KT 5SM BR OVC007 02/00 A3024 RMK AO2
Loading
Personal Weather Stations






























Interactive Weather Map New forecast layout! Learn more

10-Day Weather Forecast

Advertisements
Track Severe Weather on mobile